Franklin, NC (28734)

12:29 PM EDT on April 29, 2017 (GMT -0400)
Macon Early College | | Change Station

Elev 2145 ft 35.16 °N, 83.38 °W | Updated 4 seconds ago

Clear
Clear
83.1 °F
Feels Like 85 °F
N
7.8
Wind Variable Wind from South

Today
High -- | Low -- °F
--% Chance of Precip.
Yesterday
High -- | Low -- °F
Precip. -- in
Pressure 30.20 in
Visibility 10.0 miles
Clouds Clear
Heat Index 85 °F
Dew Point 64 °F
Humidity 53%
Rainfall 0.00 in
Snow Depth Not available.
6:44 AM 8:17 PM
Waxing Crescent, 14% visible
METAR K1A5 291610Z AUTO 15003KT 10SM CLR 28/17 A3020 RMK AO2 T02760169
Pressure 30.20 in
Visibility 10.0 miles
Clouds Clear
Heat Index 85 °F
Dew Point 64 °F
Humidity 53%
Rainfall 0.00 in
Snow Depth Not available.
6:44 AM 8:17 PM
Waxing Crescent, 14% visible
METAR K1A5 291610Z AUTO 15003KT 10SM CLR 28/17 A3020 RMK AO2 T02760169

Get Severe Weather Alerts

Thanks for signing up!

Be on the lookout for a verification email in your inbox.

You'll start receiving the daily forecast at 8 AM.

×

10-Day Weather Forecast

Almanac

Astronomy

Apr. 29, 2017 Rise Set
Actual Time
Civil Twilight
Nautical Twilight
Astronomical Twilight
Moon
Length of Visible Light
Length of Day
Tomorrow will be .
, % of the Moon is Illuminated

Today's Extremes

State Highs State Lows

Community

WunderPhotos

WunderBlog® & News

Nearby

Air Quality

  Air Quality AQ Index Pollutant
Not available.

Snow Depth

Station Depth Elevation

Earthquake Activity

City Distance Mag. Time & Date
Minimum magnitude displayed is 2.5.

Coastal Water Temperatures

Place Temperature

Stations

Nearby Weather Stations

Station Location Temp. Windchill Dew Point Humidity Wind Precip. Elev Updated Type
                   

Watches & Warnings

There are currently no watches in effect.